createdAt,value
2023-02-23T00:02:30.356Z,8.00
2023-02-23T00:07:36.690Z,8.11
2023-02-23T00:12:39.534Z,8.26
2023-02-23T00:17:42.565Z,8.30
2023-02-23T00:22:46.652Z,8.33
2023-02-23T00:27:50.241Z,8.42
2023-02-23T00:32:53.464Z,8.43
2023-02-23T00:37:57.555Z,8.43
2023-02-23T00:43:01.648Z,8.35
2023-02-23T00:48:10.690Z,8.01
2023-02-23T00:53:16.683Z,8.18
2023-02-23T00:58:19.686Z,8.21
2023-02-23T01:03:22.516Z,8.36
2023-02-23T01:08:27.894Z,8.48
2023-02-23T01:13:30.716Z,8.52
2023-02-23T01:18:34.719Z,8.56
2023-02-23T01:23:39.065Z,8.57
2023-02-23T01:28:42.458Z,8.55
2023-02-23T01:33:45.977Z,8.39
2023-02-23T01:38:50.312Z,8.39
2023-02-23T01:43:58.091Z,8.34
2023-02-23T01:49:01.294Z,8.25
2023-02-23T01:54:10.902Z,8.21
2023-02-23T01:59:16.667Z,8.16
2023-02-23T02:04:20.750Z,8.24
2023-02-23T02:09:28.285Z,8.19
2023-02-23T02:14:32.275Z,8.08
2023-02-23T02:20:26.472Z,8.12
2023-02-23T02:25:44.547Z,8.23
2023-02-23T02:31:37.372Z,8.04
2023-02-23T02:37:19.271Z,8.10
2023-02-23T02:42:34.035Z,7.99
2023-02-23T02:47:40.640Z,8.04
2023-02-23T02:52:54.204Z,8.06
2023-02-23T02:58:02.187Z,8.10
2023-02-23T03:03:23.515Z,8.11
2023-02-23T03:08:52.015Z,8.12
2023-02-23T03:14:24.573Z,8.11
2023-02-23T03:19:47.611Z,8.10
2023-02-23T03:25:16.235Z,8.03
2023-02-23T03:30:44.604Z,8.03
2023-02-23T03:36:10.836Z,7.99
2023-02-23T03:41:36.397Z,7.93
2023-02-23T03:46:58.501Z,7.83
2023-02-23T03:52:25.785Z,7.80
2023-02-23T03:57:49.987Z,7.85
2023-02-23T04:03:13.598Z,7.91
2023-02-23T04:08:38.313Z,7.86
2023-02-23T04:13:46.329Z,7.88
2023-02-23T04:18:49.170Z,7.80
2023-02-23T04:23:52.135Z,7.80
2023-02-23T04:28:56.292Z,7.77
2023-02-23T04:33:59.075Z,7.74
2023-02-23T04:39:01.875Z,7.80
2023-02-23T04:44:06.247Z,7.73
2023-02-23T04:49:09.045Z,7.65
2023-02-23T04:54:11.942Z,7.62
2023-02-23T04:59:16.141Z,7.65
2023-02-23T05:04:18.928Z,7.55
2023-02-23T05:09:21.775Z,7.56
2023-02-23T05:14:27.103Z,7.56
2023-02-23T05:19:30.081Z,7.56
2023-02-23T05:24:32.968Z,7.68
2023-02-23T05:29:37.294Z,7.77
2023-02-23T05:34:41.019Z,7.76
2023-02-23T05:39:43.780Z,7.73
2023-02-23T05:44:47.954Z,7.56
2023-02-23T05:49:50.710Z,7.49
2023-02-23T05:54:53.502Z,7.43
2023-02-23T05:59:57.696Z,7.46
2023-02-23T06:05:00.459Z,7.49
2023-02-23T06:10:07.281Z,7.54
2023-02-23T06:15:35.910Z,7.56
2023-02-23T06:20:40.440Z,7.57
2023-02-23T06:25:43.367Z,7.60
2023-02-23T06:30:48.673Z,7.62
2023-02-23T06:35:51.516Z,7.64
2023-02-23T06:40:54.501Z,7.62
2023-02-23T06:45:58.645Z,7.68
2023-02-23T06:51:01.788Z,7.69
2023-02-23T06:56:05.462Z,7.70
2023-02-23T07:01:09.938Z,7.70
2023-02-23T07:06:12.752Z,7.78
2023-02-23T07:11:18.761Z,7.77
2023-02-23T07:16:24.182Z,7.82
2023-02-23T07:21:27.104Z,7.91
2023-02-23T07:26:29.998Z,7.99
2023-02-23T07:31:34.279Z,8.14
2023-02-23T07:36:37.505Z,8.08
2023-02-23T07:41:40.346Z,8.18
2023-02-23T07:46:54.780Z,8.18
2023-02-23T07:51:57.962Z,8.07
2023-02-23T07:57:37.893Z,8.12
2023-02-23T08:02:42.337Z,8.04
2023-02-23T08:07:45.387Z,8.11
2023-02-23T08:12:48.155Z,8.17
2023-02-23T08:17:52.672Z,8.23
2023-02-23T08:22:55.886Z,8.13
2023-02-23T08:28:04.803Z,8.15
2023-02-23T08:33:09.005Z,8.12
2023-02-23T08:38:11.777Z,8.07
2023-02-23T08:43:14.487Z,8.21
2023-02-23T08:48:18.647Z,8.17
2023-02-23T08:53:23.165Z,8.02
2023-02-23T08:58:26.020Z,8.09
2023-02-23T09:03:31.153Z,8.29
2023-02-23T09:08:33.942Z,8.36
2023-02-23T09:13:37.041Z,8.44
2023-02-23T09:18:42.212Z,8.41
2023-02-23T09:23:45.955Z,8.27
2023-02-23T09:28:49.021Z,8.38
2023-02-23T09:33:54.288Z,8.42
2023-02-23T09:38:57.801Z,8.41
2023-02-23T09:44:03.815Z,8.42
2023-02-23T09:49:16.470Z,8.57
2023-02-23T09:54:19.780Z,8.57
2023-02-23T09:59:25.024Z,8.48
2023-02-23T10:04:32.287Z,8.29
2023-02-23T10:09:52.236Z,8.34
2023-02-23T10:15:16.956Z,8.17
2023-02-23T10:20:28.258Z,8.19
2023-02-23T10:25:36.516Z,8.23
2023-02-23T10:30:42.201Z,8.28
2023-02-23T10:35:47.192Z,8.25
2023-02-23T10:40:55.048Z,8.28
2023-02-23T10:45:57.882Z,8.31
2023-02-23T10:51:04.392Z,8.35
2023-02-23T10:56:10.798Z,8.49
2023-02-23T11:01:14.895Z,8.65
2023-02-23T11:06:32.776Z,8.65
2023-02-23T11:11:35.620Z,8.62
2023-02-23T11:16:40.374Z,8.57
2023-02-23T11:21:52.430Z,8.56
2023-02-23T11:27:00.296Z,8.68
2023-02-23T11:32:10.528Z,8.66
2023-02-23T11:37:23.346Z,8.30
2023-02-23T11:42:27.232Z,8.50
2023-02-23T11:47:31.535Z,8.03
2023-02-23T11:52:36.515Z,8.38
2023-02-23T11:57:39.430Z,8.50
2023-02-23T12:02:51.927Z,8.05
2023-02-23T12:08:02.336Z,8.05
2023-02-23T12:13:17.937Z,8.15
2023-02-23T12:18:37.896Z,8.38
2023-02-23T12:23:48.649Z,8.36
2023-02-23T12:28:58.811Z,8.31
2023-02-23T12:34:05.294Z,8.07
2023-02-23T12:39:18.535Z,7.84
2023-02-23T12:44:33.289Z,8.11
2023-02-23T12:49:42.508Z,8.12
2023-02-23T12:54:47.977Z,7.81
2023-02-23T13:00:20.466Z,8.05
2023-02-23T13:05:28.487Z,8.26
2023-02-23T13:10:41.659Z,7.82
2023-02-23T13:16:01.047Z,7.88
2023-02-23T13:21:12.774Z,7.93
2023-02-23T13:26:28.697Z,7.87
2023-02-23T13:31:35.286Z,7.70
2023-02-23T13:36:40.703Z,7.91
2023-02-23T13:41:56.962Z,7.95
2023-02-23T13:47:10.634Z,8.16
2023-02-23T13:52:24.079Z,7.82
2023-02-23T13:57:29.185Z,7.68
2023-02-23T14:02:36.488Z,7.49
2023-02-23T14:07:42.593Z,7.57
2023-02-23T14:13:07.109Z,7.75
2023-02-23T14:18:34.458Z,7.79
2023-02-23T14:23:51.498Z,7.52
2023-02-23T14:29:25.742Z,7.40
2023-02-23T14:34:47.145Z,7.46
2023-02-23T14:39:51.604Z,7.27
2023-02-23T14:44:57.347Z,7.49
2023-02-23T14:50:02.493Z,7.69
2023-02-23T14:55:20.996Z,7.70
2023-02-23T15:00:27.484Z,7.50
2023-02-23T15:05:32.604Z,7.30
2023-02-23T15:10:38.267Z,7.42
2023-02-23T15:15:46.500Z,7.51
2023-02-23T15:20:50.228Z,7.27
2023-02-23T15:25:53.109Z,7.30
2023-02-23T15:31:00.842Z,7.35
2023-02-23T15:36:09.196Z,7.43
2023-02-23T15:41:19.616Z,7.44
2023-02-23T15:46:27.726Z,7.44
2023-02-23T15:51:36.127Z,7.33
2023-02-23T15:56:39.000Z,7.02
2023-02-23T16:01:46.301Z,7.06
2023-02-23T16:06:54.533Z,7.25
2023-02-23T16:12:02.717Z,7.26
2023-02-23T16:17:11.688Z,7.25
2023-02-23T16:22:22.658Z,7.25
2023-02-23T16:27:27.478Z,7.26
2023-02-23T16:32:38.885Z,6.92
2023-02-23T16:37:58.195Z,6.83
2023-02-23T16:43:01.105Z,6.86
2023-02-23T16:48:11.599Z,6.48
2023-02-23T16:53:15.298Z,6.81
2023-02-23T16:58:21.913Z,6.67
2023-02-23T17:03:27.851Z,6.70
2023-02-23T17:08:31.690Z,6.77
2023-02-23T17:13:35.477Z,6.79
2023-02-23T17:18:42.790Z,6.41
2023-02-23T17:23:50.892Z,6.51
2023-02-23T17:28:54.030Z,6.77
2023-02-23T17:33:58.387Z,6.83
2023-02-23T17:39:01.871Z,6.60
2023-02-23T17:44:05.893Z,6.39
2023-02-23T17:49:10.108Z,6.49
2023-02-23T17:54:12.950Z,6.64
2023-02-23T17:59:15.855Z,6.66
2023-02-23T18:04:20.019Z,6.45
2023-02-23T18:09:22.806Z,6.53
2023-02-23T18:14:25.613Z,6.03
2023-02-23T18:19:30.562Z,6.37
2023-02-23T18:24:33.374Z,6.37
2023-02-23T18:29:37.211Z,6.33
2023-02-23T18:34:41.415Z,6.31
2023-02-23T18:39:44.205Z,6.12
2023-02-23T18:44:47.120Z,6.01
2023-02-23T18:49:52.706Z,6.29
2023-02-23T18:54:55.761Z,6.31
2023-02-23T18:59:58.639Z,6.38
2023-02-23T19:05:03.088Z,6.26
2023-02-23T19:10:09.030Z,6.33
2023-02-23T19:15:12.304Z,5.93
2023-02-23T19:20:17.187Z,6.27
2023-02-23T19:25:20.025Z,6.33
2023-02-23T19:30:22.891Z,6.17
2023-02-23T19:35:27.043Z,6.11
2023-02-23T19:40:30.878Z,6.29
2023-02-23T19:45:33.758Z,6.28
2023-02-23T19:50:37.984Z,5.98
2023-02-23T19:55:41.721Z,5.89
2023-02-23T20:00:46.989Z,5.84
2023-02-23T20:05:51.175Z,5.81
2023-02-23T20:10:54.088Z,5.80
2023-02-23T20:16:02.075Z,5.69
2023-02-23T20:21:10.281Z,5.59
2023-02-23T20:26:16.472Z,5.48
2023-02-23T20:31:21.996Z,5.42
2023-02-23T20:36:26.894Z,5.44
2023-02-23T20:41:31.492Z,5.46
2023-02-23T20:46:34.287Z,5.48
2023-02-23T20:51:40.094Z,5.34
2023-02-23T20:56:44.547Z,5.18
2023-02-23T21:01:47.563Z,5.15
2023-02-23T21:06:51.773Z,5.05
2023-02-23T21:11:55.387Z,5.09
2023-02-23T21:16:58.655Z,5.07
2023-02-23T21:22:04.307Z,5.12
2023-02-23T21:27:12.617Z,5.05
2023-02-23T21:32:16.720Z,5.04
2023-02-23T21:37:21.031Z,5.08
2023-02-23T21:42:24.080Z,5.15
2023-02-23T21:47:27.003Z,5.15
2023-02-23T21:52:31.382Z,5.18
2023-02-23T21:57:34.239Z,5.18
2023-02-23T22:02:40.945Z,5.11
2023-02-23T22:07:51.236Z,5.12
2023-02-23T22:12:55.831Z,5.03
2023-02-23T22:17:58.791Z,5.08
2023-02-23T22:23:03.452Z,5.06
2023-02-23T22:28:09.028Z,4.96
2023-02-23T22:33:12.167Z,4.95
2023-02-23T22:38:19.068Z,4.82
2023-02-23T22:43:22.778Z,4.73
2023-02-23T22:48:28.375Z,4.68
2023-02-23T22:53:33.429Z,4.68
2023-02-23T22:58:36.735Z,4.70
2023-02-23T23:03:41.448Z,4.75
2023-02-23T23:08:49.040Z,4.42
2023-02-23T23:13:53.656Z,4.23
2023-02-23T23:18:58.304Z,4.24
2023-02-23T23:24:05.689Z,4.00
2023-02-23T23:29:11.243Z,3.89
2023-02-23T23:34:16.476Z,3.76
2023-02-23T23:39:23.205Z,3.90
2023-02-23T23:44:29.102Z,3.93
2023-02-23T23:49:35.697Z,4.02
2023-02-23T23:54:41.177Z,3.97
2023-02-23T23:59:46.143Z,4.00
